sensor_id;sensor_type;location;lat;lon;timestamp;pressure;altitude;pressure_sealevel;temperature;humidity
47983;BME280;33751;50.816;-1.214;2023-03-16T00:01:32;100998.33;;;23.31;100.00
47983;BME280;33751;50.816;-1.214;2023-03-16T00:03:59;100998.28;;;22.99;100.00
47983;BME280;33751;50.816;-1.214;2023-03-16T00:06:25;100994.35;;;23.38;100.00
47983;BME280;33751;50.816;-1.214;2023-03-16T00:08:52;100993.26;;;23.66;100.00
47983;BME280;33751;50.816;-1.214;2023-03-16T00:11:18;100990.63;;;23.40;100.00
47983;BME280;33751;50.816;-1.214;2023-03-16T00:13:45;100989.11;;;23.32;100.00
47983;BME280;33751;50.816;-1.214;2023-03-16T00:16:11;100984.09;;;23.56;100.00
47983;BME280;33751;50.816;-1.214;2023-03-16T00:18:38;100982.79;;;23.32;100.00
47983;BME280;33751;50.816;-1.214;2023-03-16T00:21:05;100978.70;;;23.51;100.00
47983;BME280;33751;50.816;-1.214;2023-03-16T00:23:32;100972.98;;;23.44;100.00
47983;BME280;33751;50.816;-1.214;2023-03-16T00:26:02;100970.06;;;23.38;100.00
47983;BME280;33751;50.816;-1.214;2023-03-16T00:28:31;100966.15;;;23.35;100.00
47983;BME280;33751;50.816;-1.214;2023-03-16T00:30:59;100962.27;;;23.13;100.00
47983;BME280;33751;50.816;-1.214;2023-03-16T00:33:26;100964.26;;;23.66;100.00
47983;BME280;33751;50.816;-1.214;2023-03-16T00:35:53;100960.12;;;23.27;100.00
47983;BME280;33751;50.816;-1.214;2023-03-16T00:38:20;100951.97;;;23.08;100.00
47983;BME280;33751;50.816;-1.214;2023-03-16T00:40:46;100949.18;;;23.33;100.00
47983;BME280;33751;50.816;-1.214;2023-03-16T00:43:13;100943.89;;;23.55;100.00
47983;BME280;33751;50.816;-1.214;2023-03-16T00:45:40;100946.90;;;23.43;100.00
47983;BME280;33751;50.816;-1.214;2023-03-16T00:48:07;100945.20;;;23.28;100.00
47983;BME280;33751;50.816;-1.214;2023-03-16T00:50:33;100940.00;;;23.48;100.00
47983;BME280;33751;50.816;-1.214;2023-03-16T00:53:00;100933.89;;;23.38;100.00
47983;BME280;33751;50.816;-1.214;2023-03-16T00:55:26;100933.03;;;23.76;100.00
47983;BME280;33751;50.816;-1.214;2023-03-16T00:57:53;100931.62;;;23.65;100.00
47983;BME280;33751;50.816;-1.214;2023-03-16T01:00:20;100923.92;;;23.37;100.00
47983;BME280;33751;50.816;-1.214;2023-03-16T01:02:47;100924.44;;;23.49;100.00
47983;BME280;33751;50.816;-1.214;2023-03-16T01:05:14;100914.35;;;23.78;100.00
47983;BME280;33751;50.816;-1.214;2023-03-16T01:07:41;100912.79;;;23.73;100.00
47983;BME280;33751;50.816;-1.214;2023-03-16T01:10:09;100910.39;;;23.54;100.00
47983;BME280;33751;50.816;-1.214;2023-03-16T01:12:36;100906.16;;;23.29;100.00
47983;BME280;33751;50.816;-1.214;2023-03-16T01:15:04;100903.54;;;23.01;100.00
47983;BME280;33751;50.816;-1.214;2023-03-16T01:17:31;100898.69;;;23.25;100.00
47983;BME280;33751;50.816;-1.214;2023-03-16T01:19:57;100895.39;;;23.23;100.00
47983;BME280;33751;50.816;-1.214;2023-03-16T01:22:24;100895.25;;;23.45;100.00
47983;BME280;33751;50.816;-1.214;2023-03-16T01:24:50;100891.90;;;23.54;100.00
47983;BME280;33751;50.816;-1.214;2023-03-16T01:27:17;100887.13;;;23.60;100.00
47983;BME280;33751;50.816;-1.214;2023-03-16T01:29:44;100886.37;;;23.36;100.00
47983;BME280;33751;50.816;-1.214;2023-03-16T01:32:11;100883.73;;;23.23;100.00
47983;BME280;33751;50.816;-1.214;2023-03-16T01:34:38;100880.78;;;23.49;100.00
47983;BME280;33751;50.816;-1.214;2023-03-16T01:37:05;100872.65;;;23.68;100.00
47983;BME280;33751;50.816;-1.214;2023-03-16T01:39:31;100870.64;;;23.59;100.00
47983;BME280;33751;50.816;-1.214;2023-03-16T01:41:58;100870.46;;;23.61;100.00
47983;BME280;33751;50.816;-1.214;2023-03-16T01:44:26;100869.12;;;23.45;100.00
47983;BME280;33751;50.816;-1.214;2023-03-16T01:46:52;100863.44;;;23.74;100.00
47983;BME280;33751;50.816;-1.214;2023-03-16T01:49:21;100863.61;;;23.62;100.00
47983;BME280;33751;50.816;-1.214;2023-03-16T01:51:52;100858.23;;;23.74;100.00
47983;BME280;33751;50.816;-1.214;2023-03-16T01:54:23;100857.64;;;23.63;100.00
47983;BME280;33751;50.816;-1.214;2023-03-16T01:56:58;100856.63;;;23.50;100.00
47983;BME280;33751;50.816;-1.214;2023-03-16T01:59:32;100854.08;;;23.91;100.00
47983;BME280;33751;50.816;-1.214;2023-03-16T02:02:01;100851.81;;;23.82;100.00
47983;BME280;33751;50.816;-1.214;2023-03-16T02:04:38;100847.56;;;24.29;100.00
47983;BME280;33751;50.816;-1.214;2023-03-16T02:07:09;100842.22;;;23.77;100.00
47983;BME280;33751;50.816;-1.214;2023-03-16T02:09:39;100835.21;;;23.59;100.00
47983;BME280;33751;50.816;-1.214;2023-03-16T02:12:09;100834.38;;;23.58;100.00
47983;BME280;33751;50.816;-1.214;2023-03-16T02:14:37;100832.18;;;23.60;100.00
47983;BME280;33751;50.816;-1.214;2023-03-16T02:17:04;100831.81;;;23.24;100.00
47983;BME280;33751;50.816;-1.214;2023-03-16T02:19:38;100826.48;;;23.09;100.00
47983;BME280;33751;50.816;-1.214;2023-03-16T02:22:09;100824.61;;;23.05;100.00
47983;BME280;33751;50.816;-1.214;2023-03-16T02:24:37;100821.67;;;22.95;100.00
47983;BME280;33751;50.816;-1.214;2023-03-16T02:27:06;100816.33;;;23.26;100.00
47983;BME280;33751;50.816;-1.214;2023-03-16T02:29:58;100814.70;;;22.97;100.00
47983;BME280;33751;50.816;-1.214;2023-03-16T02:32:29;100813.92;;;23.13;100.00
47983;BME280;33751;50.816;-1.214;2023-03-16T02:34:58;100805.63;;;23.80;100.00
47983;BME280;33751;50.816;-1.214;2023-03-16T02:37:26;100800.37;;;22.91;100.00
47983;BME280;33751;50.816;-1.214;2023-03-16T02:39:52;100804.97;;;22.95;100.00
47983;BME280;33751;50.816;-1.214;2023-03-16T02:42:22;100803.07;;;23.15;100.00
47983;BME280;33751;50.816;-1.214;2023-03-16T02:44:52;100793.08;;;23.25;100.00
47983;BME280;33751;50.816;-1.214;2023-03-16T02:47:26;100785.76;;;23.28;100.00
47983;BME280;33751;50.816;-1.214;2023-03-16T02:49:55;100781.84;;;23.44;100.00
47983;BME280;33751;50.816;-1.214;2023-03-16T02:52:21;100774.83;;;23.69;100.00
47983;BME280;33751;50.816;-1.214;2023-03-16T02:54:48;100769.01;;;23.46;100.00
47983;BME280;33751;50.816;-1.214;2023-03-16T02:57:14;100777.53;;;23.65;100.00
47983;BME280;33751;50.816;-1.214;2023-03-16T02:59:41;100777.87;;;23.05;100.00
47983;BME280;33751;50.816;-1.214;2023-03-16T03:02:08;100771.17;;;23.45;100.00
47983;BME280;33751;50.816;-1.214;2023-03-16T03:04:35;100771.44;;;23.07;100.00
47983;BME280;33751;50.816;-1.214;2023-03-16T03:07:01;100772.57;;;23.03;100.00
47983;BME280;33751;50.816;-1.214;2023-03-16T03:09:28;100763.58;;;23.02;100.00
47983;BME280;33751;50.816;-1.214;2023-03-16T03:11:54;100762.93;;;23.07;100.00
47983;BME280;33751;50.816;-1.214;2023-03-16T03:14:20;100763.74;;;23.09;100.00
47983;BME280;33751;50.816;-1.214;2023-03-16T03:16:48;100766.89;;;23.07;100.00
47983;BME280;33751;50.816;-1.214;2023-03-16T03:19:14;100769.89;;;23.08;100.00
47983;BME280;33751;50.816;-1.214;2023-03-16T03:21:41;100770.17;;;23.33;100.00
47983;BME280;33751;50.816;-1.214;2023-03-16T03:24:08;100767.67;;;23.14;100.00
47983;BME280;33751;50.816;-1.214;2023-03-16T03:26:34;100757.50;;;23.39;100.00
47983;BME280;33751;50.816;-1.214;2023-03-16T03:29:02;100768.09;;;23.12;100.00
47983;BME280;33751;50.816;-1.214;2023-03-16T03:31:29;100769.23;;;23.37;100.00
47983;BME280;33751;50.816;-1.214;2023-03-16T03:33:56;100766.53;;;23.13;100.00
47983;BME280;33751;50.816;-1.214;2023-03-16T03:36:23;100764.26;;;22.88;100.00
47983;BME280;33751;50.816;-1.214;2023-03-16T03:38:50;100764.60;;;22.59;100.00
47983;BME280;33751;50.816;-1.214;2023-03-16T03:41:17;100764.17;;;23.25;100.00
47983;BME280;33751;50.816;-1.214;2023-03-16T03:43:43;100762.92;;;22.97;100.00
47983;BME280;33751;50.816;-1.214;2023-03-16T03:46:10;100762.55;;;22.97;100.00
47983;BME280;33751;50.816;-1.214;2023-03-16T03:48:36;100756.12;;;23.00;100.00
47983;BME280;33751;50.816;-1.214;2023-03-16T03:51:03;100750.93;;;23.00;100.00
47983;BME280;33751;50.816;-1.214;2023-03-16T03:53:30;100743.65;;;22.82;100.00
47983;BME280;33751;50.816;-1.214;2023-03-16T03:55:57;100749.91;;;23.07;100.00
47983;BME280;33751;50.816;-1.214;2023-03-16T03:58:24;100744.60;;;22.75;100.00
47983;BME280;33751;50.816;-1.214;2023-03-16T04:00:50;100741.22;;;23.14;100.00
47983;BME280;33751;50.816;-1.214;2023-03-16T04:03:17;100743.19;;;23.20;100.00
47983;BME280;33751;50.816;-1.214;2023-03-16T04:05:44;100742.54;;;23.16;100.00
47983;BME280;33751;50.816;-1.214;2023-03-16T04:08:11;100740.39;;;23.22;100.00
47983;BME280;33751;50.816;-1.214;2023-03-16T04:10:37;100733.87;;;22.67;100.00
47983;BME280;33751;50.816;-1.214;2023-03-16T04:13:04;100738.01;;;22.97;100.00
47983;BME280;33751;50.816;-1.214;2023-03-16T04:15:31;100731.85;;;23.24;100.00
47983;BME280;33751;50.816;-1.214;2023-03-16T04:17:58;100728.47;;;22.72;100.00
47983;BME280;33751;50.816;-1.214;2023-03-16T04:20:25;100727.43;;;22.89;100.00
47983;BME280;33751;50.816;-1.214;2023-03-16T04:22:51;100726.35;;;22.90;100.00
47983;BME280;33751;50.816;-1.214;2023-03-16T04:25:18;100725.53;;;22.87;100.00
47983;BME280;33751;50.816;-1.214;2023-03-16T04:27:44;100723.88;;;22.88;100.00
47983;BME280;33751;50.816;-1.214;2023-03-16T04:30:12;100725.75;;;23.06;100.00
47983;BME280;33751;50.816;-1.214;2023-03-16T04:32:40;100721.71;;;23.09;100.00
47983;BME280;33751;50.816;-1.214;2023-03-16T04:35:07;100723.20;;;23.10;100.00
47983;BME280;33751;50.816;-1.214;2023-03-16T04:37:35;100718.68;;;22.63;100.00
47983;BME280;33751;50.816;-1.214;2023-03-16T04:40:02;100717.88;;;23.17;100.00
47983;BME280;33751;50.816;-1.214;2023-03-16T04:42:29;100711.78;;;23.10;100.00
47983;BME280;33751;50.816;-1.214;2023-03-16T04:44:57;100708.40;;;23.08;100.00
47983;BME280;33751;50.816;-1.214;2023-03-16T04:47:23;100712.99;;;23.11;100.00
47983;BME280;33751;50.816;-1.214;2023-03-16T04:49:49;100707.24;;;23.05;100.00
47983;BME280;33751;50.816;-1.214;2023-03-16T04:52:16;100710.55;;;22.84;100.00
47983;BME280;33751;50.816;-1.214;2023-03-16T04:54:43;100707.70;;;22.94;100.00
47983;BME280;33751;50.816;-1.214;2023-03-16T04:57:10;100705.69;;;23.11;100.00
47983;BME280;33751;50.816;-1.214;2023-03-16T04:59:36;100710.99;;;22.59;100.00
47983;BME280;33751;50.816;-1.214;2023-03-16T05:02:03;100712.91;;;22.81;100.00
47983;BME280;33751;50.816;-1.214;2023-03-16T05:04:30;100709.14;;;22.80;100.00
47983;BME280;33751;50.816;-1.214;2023-03-16T05:06:58;100712.71;;;22.88;100.00
47983;BME280;33751;50.816;-1.214;2023-03-16T05:09:25;100708.25;;;23.12;100.00
47983;BME280;33751;50.816;-1.214;2023-03-16T05:11:52;100708.01;;;22.86;100.00
47983;BME280;33751;50.816;-1.214;2023-03-16T05:14:19;100704.53;;;23.02;100.00
47983;BME280;33751;50.816;-1.214;2023-03-16T05:16:46;100709.69;;;22.48;100.00
47983;BME280;33751;50.816;-1.214;2023-03-16T05:19:12;100701.50;;;22.96;100.00
47983;BME280;33751;50.816;-1.214;2023-03-16T05:21:39;100704.29;;;22.51;100.00
47983;BME280;33751;50.816;-1.214;2023-03-16T05:24:06;100710.46;;;22.98;100.00
47983;BME280;33751;50.816;-1.214;2023-03-16T05:26:33;100706.27;;;22.96;100.00
47983;BME280;33751;50.816;-1.214;2023-03-16T05:29:00;100700.12;;;22.46;100.00
47983;BME280;33751;50.816;-1.214;2023-03-16T05:31:27;100705.28;;;22.45;100.00
47983;BME280;33751;50.816;-1.214;2023-03-16T05:33:54;100704.95;;;22.73;100.00
47983;BME280;33751;50.816;-1.214;2023-03-16T05:36:21;100698.88;;;22.74;100.00
47983;BME280;33751;50.816;-1.214;2023-03-16T05:38:47;100695.65;;;22.91;100.00
47983;BME280;33751;50.816;-1.214;2023-03-16T05:41:14;100697.81;;;22.45;100.00
47983;BME280;33751;50.816;-1.214;2023-03-16T05:43:40;100697.57;;;22.73;100.00
47983;BME280;33751;50.816;-1.214;2023-03-16T05:46:07;100693.55;;;22.47;100.00
47983;BME280;33751;50.816;-1.214;2023-03-16T05:48:33;100695.34;;;22.75;100.00
47983;BME280;33751;50.816;-1.214;2023-03-16T05:51:00;100692.26;;;22.92;100.00
47983;BME280;33751;50.816;-1.214;2023-03-16T05:53:26;100698.13;;;22.62;100.00
47983;BME280;33751;50.816;-1.214;2023-03-16T05:55:53;100697.82;;;22.33;100.00
47983;BME280;33751;50.816;-1.214;2023-03-16T05:58:20;100694.79;;;22.89;100.00
47983;BME280;33751;50.816;-1.214;2023-03-16T06:00:46;100694.63;;;22.84;100.00
47983;BME280;33751;50.816;-1.214;2023-03-16T06:03:14;100689.66;;;22.85;100.00
47983;BME280;33751;50.816;-1.214;2023-03-16T06:05:40;100689.56;;;22.78;100.00
47983;BME280;33751;50.816;-1.214;2023-03-16T06:08:07;100693.13;;;22.76;100.00
47983;BME280;33751;50.816;-1.214;2023-03-16T06:10:33;100696.76;;;22.45;100.00
47983;BME280;33751;50.816;-1.214;2023-03-16T06:13:00;100696.07;;;22.64;100.00
47983;BME280;33751;50.816;-1.214;2023-03-16T06:15:28;100689.38;;;22.67;100.00
47983;BME280;33751;50.816;-1.214;2023-03-16T06:17:55;100686.75;;;22.59;100.00
47983;BME280;33751;50.816;-1.214;2023-03-16T06:20:22;100689.78;;;22.46;100.00
47983;BME280;33751;50.816;-1.214;2023-03-16T06:22:50;100686.33;;;22.72;100.00
47983;BME280;33751;50.816;-1.214;2023-03-16T06:25:17;100685.25;;;22.73;100.00
47983;BME280;33751;50.816;-1.214;2023-03-16T06:27:44;100684.30;;;22.51;100.00
47983;BME280;33751;50.816;-1.214;2023-03-16T06:30:12;100677.78;;;22.71;100.00
47983;BME280;33751;50.816;-1.214;2023-03-16T06:32:40;100671.61;;;22.70;100.00
47983;BME280;33751;50.816;-1.214;2023-03-16T06:35:08;100671.92;;;22.77;100.00
47983;BME280;33751;50.816;-1.214;2023-03-16T06:37:35;100677.93;;;22.97;100.00
47983;BME280;33751;50.816;-1.214;2023-03-16T06:40:04;100677.97;;;22.83;100.00
47983;BME280;33751;50.816;-1.214;2023-03-16T06:42:31;100674.28;;;22.90;100.00
47983;BME280;33751;50.816;-1.214;2023-03-16T06:44:57;100668.52;;;22.97;100.00
47983;BME280;33751;50.816;-1.214;2023-03-16T06:47:24;100662.14;;;23.05;100.00
47983;BME280;33751;50.816;-1.214;2023-03-16T06:49:51;100653.64;;;23.15;100.00
47983;BME280;33751;50.816;-1.214;2023-03-16T06:52:18;100649.15;;;22.99;100.00
47983;BME280;33751;50.816;-1.214;2023-03-16T06:54:45;100645.57;;;23.00;100.00
47983;BME280;33751;50.816;-1.214;2023-03-16T06:57:11;100644.82;;;22.78;100.00
47983;BME280;33751;50.816;-1.214;2023-03-16T06:59:38;100638.40;;;22.92;100.00
47983;BME280;33751;50.816;-1.214;2023-03-16T07:02:05;100647.30;;;22.92;100.00
47983;BME280;33751;50.816;-1.214;2023-03-16T07:04:32;100646.11;;;23.03;100.00
47983;BME280;33751;50.816;-1.214;2023-03-16T07:06:59;100649.26;;;23.41;100.00
47983;BME280;33751;50.816;-1.214;2023-03-16T07:09:25;100649.63;;;23.18;100.00
47983;BME280;33751;50.816;-1.214;2023-03-16T07:11:52;100647.52;;;23.25;100.00
47983;BME280;33751;50.816;-1.214;2023-03-16T07:14:18;100649.15;;;23.29;100.00
47983;BME280;33751;50.816;-1.214;2023-03-16T07:16:45;100645.74;;;23.36;100.00
47983;BME280;33751;50.816;-1.214;2023-03-16T07:19:11;100640.57;;;23.50;100.00
47983;BME280;33751;50.816;-1.214;2023-03-16T07:21:38;100643.89;;;23.54;100.00
47983;BME280;33751;50.816;-1.214;2023-03-16T07:24:06;100641.29;;;23.61;100.00
47983;BME280;33751;50.816;-1.214;2023-03-16T07:26:33;100643.75;;;23.64;100.00
47983;BME280;33751;50.816;-1.214;2023-03-16T07:29:00;100642.67;;;23.66;100.00
47983;BME280;33751;50.816;-1.214;2023-03-16T07:31:28;100641.89;;;23.74;100.00
47983;BME280;33751;50.816;-1.214;2023-03-16T07:33:54;100651.47;;;23.76;100.00
47983;BME280;33751;50.816;-1.214;2023-03-16T07:36:21;100654.22;;;24.18;100.00
47983;BME280;33751;50.816;-1.214;2023-03-16T07:38:47;100664.62;;;23.95;100.00
47983;BME280;33751;50.816;-1.214;2023-03-16T07:41:14;100666.94;;;24.08;100.00
47983;BME280;33751;50.816;-1.214;2023-03-16T07:43:41;100666.03;;;24.07;100.00
47983;BME280;33751;50.816;-1.214;2023-03-16T07:46:07;100666.37;;;24.07;100.00
47983;BME280;33751;50.816;-1.214;2023-03-16T07:48:34;100660.49;;;23.75;100.00
47983;BME280;33751;50.816;-1.214;2023-03-16T07:51:01;100660.96;;;24.35;100.00
47983;BME280;33751;50.816;-1.214;2023-03-16T07:53:28;100659.97;;;24.44;100.00
47983;BME280;33751;50.816;-1.214;2023-03-16T07:55:56;100664.16;;;24.44;100.00
47983;BME280;33751;50.816;-1.214;2023-03-16T07:58:23;100664.59;;;23.90;100.00
47983;BME280;33751;50.816;-1.214;2023-03-16T08:00:49;100676.57;;;24.17;100.00
47983;BME280;33751;50.816;-1.214;2023-03-16T08:03:16;100681.35;;;24.40;100.00
47983;BME280;33751;50.816;-1.214;2023-03-16T08:05:43;100671.79;;;24.23;100.00
47983;BME280;33751;50.816;-1.214;2023-03-16T08:08:10;100672.66;;;24.05;100.00
47983;BME280;33751;50.816;-1.214;2023-03-16T08:10:36;100669.57;;;24.47;100.00
47983;BME280;33751;50.816;-1.214;2023-03-16T08:13:03;100663.90;;;24.08;100.00
47983;BME280;33751;50.816;-1.214;2023-03-16T08:15:30;100664.11;;;24.18;100.00
47983;BME280;33751;50.816;-1.214;2023-03-16T08:17:57;100664.60;;;24.28;100.00
47983;BME280;33751;50.816;-1.214;2023-03-16T08:20:24;100663.20;;;24.42;100.00
47983;BME280;33751;50.816;-1.214;2023-03-16T08:22:51;100660.55;;;24.31;100.00
47983;BME280;33751;50.816;-1.214;2023-03-16T08:25:18;100646.64;;;24.56;100.00
47983;BME280;33751;50.816;-1.214;2023-03-16T08:27:45;100638.75;;;24.61;100.00
47983;BME280;33751;50.816;-1.214;2023-03-16T08:30:14;100635.11;;;24.73;100.00
47983;BME280;33751;50.816;-1.214;2023-03-16T08:32:41;100635.85;;;24.36;100.00
47983;BME280;33751;50.816;-1.214;2023-03-16T08:35:11;100633.06;;;24.82;100.00
47983;BME280;33751;50.816;-1.214;2023-03-16T08:37:38;100631.35;;;25.09;100.00
47983;BME280;33751;50.816;-1.214;2023-03-16T08:40:07;100635.36;;;25.06;100.00
47983;BME280;33751;50.816;-1.214;2023-03-16T08:42:34;100639.98;;;24.90;100.00
47983;BME280;33751;50.816;-1.214;2023-03-16T08:45:00;100640.77;;;24.95;100.00
47983;BME280;33751;50.816;-1.214;2023-03-16T08:47:27;100644.33;;;24.88;100.00
47983;BME280;33751;50.816;-1.214;2023-03-16T08:49:54;100636.11;;;24.76;100.00
47983;BME280;33751;50.816;-1.214;2023-03-16T08:52:21;100638.41;;;24.66;100.00
47983;BME280;33751;50.816;-1.214;2023-03-16T08:54:47;100644.19;;;25.00;100.00
47983;BME280;33751;50.816;-1.214;2023-03-16T08:57:13;100651.35;;;25.32;100.00
47983;BME280;33751;50.816;-1.214;2023-03-16T08:59:40;100652.83;;;25.20;100.00
47983;BME280;33751;50.816;-1.214;2023-03-16T09:02:11;100652.77;;;25.06;100.00
47983;BME280;33751;50.816;-1.214;2023-03-16T09:04:37;100649.70;;;25.24;100.00
47983;BME280;33751;50.816;-1.214;2023-03-16T09:07:04;100638.12;;;26.42;100.00
47983;BME280;33751;50.816;-1.214;2023-03-16T09:09:30;100620.62;;;26.73;98.58
47983;BME280;33751;50.816;-1.214;2023-03-16T09:11:57;100626.40;;;26.78;98.18
47983;BME280;33751;50.816;-1.214;2023-03-16T09:14:24;100622.16;;;27.03;100.00
47983;BME280;33751;50.816;-1.214;2023-03-16T09:16:51;100625.90;;;27.10;100.00
47983;BME280;33751;50.816;-1.214;2023-03-16T09:19:18;100621.37;;;27.55;100.00
47983;BME280;33751;50.816;-1.214;2023-03-16T09:21:45;100622.32;;;27.29;100.00
47983;BME280;33751;50.816;-1.214;2023-03-16T09:24:11;100627.73;;;27.18;100.00
47983;BME280;33751;50.816;-1.214;2023-03-16T09:26:38;100628.51;;;26.76;100.00
47983;BME280;33751;50.816;-1.214;2023-03-16T09:29:05;100617.36;;;26.64;100.00
47983;BME280;33751;50.816;-1.214;2023-03-16T09:31:32;100616.37;;;26.65;100.00
47983;BME280;33751;50.816;-1.214;2023-03-16T09:33:59;100619.28;;;26.51;100.00
47983;BME280;33751;50.816;-1.214;2023-03-16T09:36:26;100620.05;;;26.81;100.00
47983;BME280;33751;50.816;-1.214;2023-03-16T09:38:53;100618.73;;;26.78;100.00
47983;BME280;33751;50.816;-1.214;2023-03-16T09:41:30;100619.63;;;26.69;100.00
47983;BME280;33751;50.816;-1.214;2023-03-16T09:44:09;100620.26;;;27.37;100.00
47983;BME280;33751;50.816;-1.214;2023-03-16T09:46:41;100624.07;;;26.53;100.00
47983;BME280;33751;50.816;-1.214;2023-03-16T09:49:11;100621.60;;;26.93;100.00
47983;BME280;33751;50.816;-1.214;2023-03-16T09:51:43;100622.86;;;26.79;100.00
47983;BME280;33751;50.816;-1.214;2023-03-16T09:54:19;100618.93;;;27.35;100.00
47983;BME280;33751;50.816;-1.214;2023-03-16T09:56:48;100616.89;;;27.59;100.00
47983;BME280;33751;50.816;-1.214;2023-03-16T09:59:16;100612.92;;;27.64;100.00
47983;BME280;33751;50.816;-1.214;2023-03-16T10:01:55;100613.39;;;27.77;100.00
47983;BME280;33751;50.816;-1.214;2023-03-16T10:04:35;100615.44;;;27.89;100.00
47983;BME280;33751;50.816;-1.214;2023-03-16T10:07:15;100620.66;;;28.01;100.00
47983;BME280;33751;50.816;-1.214;2023-03-16T10:09:51;100619.35;;;27.74;100.00
47983;BME280;33751;50.816;-1.214;2023-03-16T10:12:21;100626.08;;;27.94;99.05
47983;BME280;33751;50.816;-1.214;2023-03-16T10:14:55;100624.87;;;28.19;97.98
47983;BME280;33751;50.816;-1.214;2023-03-16T10:17:29;100630.80;;;28.48;98.73
47983;BME280;33751;50.816;-1.214;2023-03-16T10:20:00;100628.51;;;28.18;98.42
47983;BME280;33751;50.816;-1.214;2023-03-16T10:22:31;100627.85;;;28.37;97.40
47983;BME280;33751;50.816;-1.214;2023-03-16T10:25:03;100622.70;;;28.17;97.90
47983;BME280;33751;50.816;-1.214;2023-03-16T10:27:34;100620.25;;;27.89;97.74
47983;BME280;33751;50.816;-1.214;2023-03-16T10:30:06;100616.45;;;27.75;98.66
47983;BME280;33751;50.816;-1.214;2023-03-16T10:32:40;100620.93;;;27.83;97.77
47983;BME280;33751;50.816;-1.214;2023-03-16T10:35:19;100617.20;;;27.98;97.44
47983;BME280;33751;50.816;-1.214;2023-03-16T10:37:47;100607.64;;;27.97;97.59
47983;BME280;33751;50.816;-1.214;2023-03-16T10:40:15;100607.72;;;27.98;97.45
47983;BME280;33751;50.816;-1.214;2023-03-16T10:42:42;100608.27;;;27.78;97.91
47983;BME280;33751;50.816;-1.214;2023-03-16T10:45:22;100605.22;;;28.25;97.77
47983;BME280;33751;50.816;-1.214;2023-03-16T10:47:49;100591.24;;;27.70;97.22
47983;BME280;33751;50.816;-1.214;2023-03-16T10:50:23;100591.85;;;28.00;97.52
47983;BME280;33751;50.816;-1.214;2023-03-16T10:52:53;100593.41;;;27.56;98.15
47983;BME280;33751;50.816;-1.214;2023-03-16T10:55:23;100588.15;;;27.78;97.88
47983;BME280;33751;50.816;-1.214;2023-03-16T10:57:51;100584.71;;;27.34;99.14
47983;BME280;33751;50.816;-1.214;2023-03-16T11:00:21;100585.79;;;27.12;99.81
47983;BME280;33751;50.816;-1.214;2023-03-16T11:02:50;100582.95;;;27.50;100.00
47983;BME280;33751;50.816;-1.214;2023-03-16T11:05:26;100596.43;;;27.11;100.00
47983;BME280;33751;50.816;-1.214;2023-03-16T11:07:58;100594.89;;;27.11;100.00
47983;BME280;33751;50.816;-1.214;2023-03-16T11:10:28;100586.11;;;27.00;100.00
47983;BME280;33751;50.816;-1.214;2023-03-16T11:13:01;100579.46;;;26.77;100.00
47983;BME280;33751;50.816;-1.214;2023-03-16T11:15:35;100574.53;;;27.11;100.00
47983;BME280;33751;50.816;-1.214;2023-03-16T11:18:04;100576.95;;;26.97;100.00
47983;BME280;33751;50.816;-1.214;2023-03-16T11:20:33;100572.55;;;26.93;100.00
47983;BME280;33751;50.816;-1.214;2023-03-16T11:23:01;100566.11;;;26.76;100.00
47983;BME280;33751;50.816;-1.214;2023-03-16T11:25:32;100566.00;;;26.72;100.00
47983;BME280;33751;50.816;-1.214;2023-03-16T11:28:11;100560.60;;;26.93;100.00
47983;BME280;33751;50.816;-1.214;2023-03-16T11:30:45;100564.78;;;26.53;100.00
47983;BME280;33751;50.816;-1.214;2023-03-16T11:33:14;100555.37;;;26.69;100.00
47983;BME280;33751;50.816;-1.214;2023-03-16T11:35:45;100551.42;;;27.15;100.00
47983;BME280;33751;50.816;-1.214;2023-03-16T11:38:16;100548.25;;;26.76;100.00
47983;BME280;33751;50.816;-1.214;2023-03-16T11:40:53;100549.59;;;26.72;100.00
47983;BME280;33751;50.816;-1.214;2023-03-16T11:43:40;100551.72;;;26.82;100.00
47983;BME280;33751;50.816;-1.214;2023-03-16T11:46:14;100546.04;;;26.57;100.00
47983;BME280;33751;50.816;-1.214;2023-03-16T11:48:48;100543.62;;;26.76;100.00
47983;BME280;33751;50.816;-1.214;2023-03-16T11:51:32;100535.34;;;26.84;100.00
47983;BME280;33751;50.816;-1.214;2023-03-16T11:54:10;100534.19;;;27.23;100.00
47983;BME280;33751;50.816;-1.214;2023-03-16T11:56:44;100534.59;;;26.64;100.00
47983;BME280;33751;50.816;-1.214;2023-03-16T11:59:25;100526.71;;;26.66;100.00
47983;BME280;33751;50.816;-1.214;2023-03-16T12:02:12;100527.53;;;26.65;100.00
47983;BME280;33751;50.816;-1.214;2023-03-16T12:04:57;100530.04;;;26.86;100.00
47983;BME280;33751;50.816;-1.214;2023-03-16T12:07:40;100525.78;;;26.55;100.00
47983;BME280;33751;50.816;-1.214;2023-03-16T12:10:19;100516.27;;;26.74;100.00
47983;BME280;33751;50.816;-1.214;2023-03-16T12:13:00;100504.01;;;26.57;100.00
47983;BME280;33751;50.816;-1.214;2023-03-16T12:15:34;100497.17;;;26.59;100.00
47983;BME280;33751;50.816;-1.214;2023-03-16T12:18:12;100496.30;;;25.40;100.00
47983;BME280;33751;50.816;-1.214;2023-03-16T12:20:49;100507.80;;;23.03;100.00
47983;BME280;33751;50.816;-1.214;2023-03-16T12:23:20;100506.69;;;21.75;100.00
47983;BME280;33751;50.816;-1.214;2023-03-16T12:25:51;100511.24;;;21.13;100.00
47983;BME280;33751;50.816;-1.214;2023-03-16T12:28:22;100497.75;;;20.98;100.00
47983;BME280;33751;50.816;-1.214;2023-03-16T12:30:55;100505.73;;;19.16;100.00
47983;BME280;33751;50.816;-1.214;2023-03-16T12:33:32;100500.58;;;18.64;100.00
47983;BME280;33751;50.816;-1.214;2023-03-16T12:36:10;100494.34;;;18.37;100.00
47983;BME280;33751;50.816;-1.214;2023-03-16T12:38:48;100491.99;;;16.11;100.00